createdAt,value
2023-01-25T00:00:15.647Z,25.63
2023-01-25T00:02:20.206Z,25.63
2023-01-25T00:04:24.803Z,25.61
2023-01-25T00:06:29.248Z,25.62
2023-01-25T00:08:33.641Z,25.63
2023-01-25T00:10:38.151Z,25.62
2023-01-25T00:12:42.649Z,25.62
2023-01-25T00:14:47.121Z,25.61
2023-01-25T00:16:51.652Z,25.61
2023-01-25T00:18:56.408Z,25.61
2023-01-25T00:21:00.978Z,25.6
2023-01-25T00:23:05.498Z,25.59
2023-01-25T00:25:10.223Z,25.58
2023-01-25T00:27:14.899Z,25.58
2023-01-25T00:29:19.309Z,25.57
2023-01-25T00:31:23.862Z,25.57
2023-01-25T00:33:28.624Z,25.56
2023-01-25T00:35:33.000Z,25.57
2023-01-25T00:37:37.734Z,25.57
2023-01-25T00:39:42.240Z,25.56
2023-01-25T00:41:46.661Z,25.57
2023-01-25T00:43:51.078Z,25.57
2023-01-25T00:45:55.491Z,25.59
2023-01-25T00:48:00.190Z,25.59
2023-01-25T00:50:04.698Z,25.59
2023-01-25T00:52:09.233Z,25.59
2023-01-25T00:54:13.738Z,25.58
2023-01-25T00:56:18.126Z,25.59
2023-01-25T00:58:22.564Z,25.6
2023-01-25T01:00:26.940Z,25.59
2023-01-25T01:02:31.410Z,25.59
2023-01-25T01:04:35.860Z,25.57
2023-01-25T01:06:40.552Z,25.56
2023-01-25T01:08:44.987Z,25.57
2023-01-25T01:10:49.374Z,25.57
2023-01-25T01:12:53.851Z,25.56
2023-01-25T01:14:58.320Z,25.56
2023-01-25T01:17:02.847Z,25.57
2023-01-25T01:19:07.487Z,25.56
2023-01-25T01:21:12.302Z,25.56
2023-01-25T01:23:16.816Z,25.55
2023-01-25T01:25:21.255Z,25.55
2023-01-25T01:27:25.657Z,25.53
2023-01-25T01:29:30.090Z,25.53
2023-01-25T01:31:34.589Z,25.53
2023-01-25T01:33:39.464Z,25.53
2023-01-25T01:35:43.849Z,25.52
2023-01-25T01:37:48.260Z,25.51
2023-01-25T01:39:52.623Z,25.51
2023-01-25T01:41:56.988Z,25.51
2023-01-25T01:44:01.437Z,25.51
2023-01-25T01:46:05.968Z,25.54
2023-01-25T01:48:10.460Z,25.55
2023-01-25T01:50:14.839Z,25.57
2023-01-25T01:52:19.321Z,25.57
2023-01-25T01:54:23.736Z,25.56
2023-01-25T01:56:28.240Z,25.57
2023-01-25T01:58:32.809Z,25.57
2023-01-25T02:00:37.229Z,25.58
2023-01-25T02:02:41.806Z,25.57
2023-01-25T02:04:46.555Z,25.58
2023-01-25T02:06:51.086Z,25.57
2023-01-25T02:08:55.485Z,25.58
2023-01-25T02:10:59.880Z,25.59
2023-01-25T02:13:04.379Z,25.56
2023-01-25T02:15:09.189Z,25.58
2023-01-25T02:17:14.791Z,25.58
2023-01-25T02:19:19.152Z,25.58
2023-01-25T02:21:23.563Z,25.57
2023-01-25T02:23:27.997Z,25.58
2023-01-25T02:25:32.361Z,25.56
2023-01-25T02:27:36.754Z,25.57
2023-01-25T02:29:41.129Z,25.57
2023-01-25T02:31:45.755Z,25.57
2023-01-25T02:33:50.619Z,25.57
2023-01-25T02:35:55.008Z,25.55
2023-01-25T02:37:59.447Z,25.56
2023-01-25T02:40:03.818Z,25.56
2023-01-25T02:42:08.267Z,25.56
2023-01-25T02:44:12.687Z,25.57
2023-01-25T02:46:17.174Z,25.58
2023-01-25T02:48:21.946Z,25.57
2023-01-25T02:50:26.347Z,25.57
2023-01-25T02:52:30.754Z,25.58
2023-01-25T02:54:35.133Z,25.57
2023-01-25T02:56:39.628Z,25.57
2023-01-25T02:58:44.142Z,25.57
2023-01-25T03:00:48.579Z,25.57
2023-01-25T03:02:53.012Z,25.56
2023-01-25T03:04:57.662Z,25.56
2023-01-25T03:07:02.072Z,25.55
2023-01-25T03:09:06.513Z,25.54
2023-01-25T03:11:10.914Z,25.55
2023-01-25T03:13:15.340Z,25.54
2023-01-25T03:15:19.723Z,25.52
2023-01-25T03:17:58.167Z,25.49
2023-01-25T03:20:02.535Z,25.51
2023-01-25T03:22:06.917Z,25.51
2023-01-25T03:24:11.508Z,25.51
2023-01-25T03:26:16.192Z,25.52
2023-01-25T03:28:20.575Z,25.52
2023-01-25T03:30:24.972Z,25.51
2023-01-25T03:32:29.416Z,25.5
2023-01-25T03:34:34.102Z,25.49
2023-01-25T03:36:38.490Z,25.49
2023-01-25T03:38:42.884Z,25.48
2023-01-25T03:40:47.284Z,25.47
2023-01-25T03:42:51.652Z,25.47
2023-01-25T03:44:56.046Z,25.47
2023-01-25T03:47:00.498Z,25.46
2023-01-25T03:49:05.349Z,25.44
2023-01-25T03:51:09.745Z,25.43
2023-01-25T03:53:14.144Z,25.41
2023-01-25T03:55:18.587Z,25.4
2023-01-25T03:57:22.991Z,25.4
2023-01-25T03:59:27.405Z,25.4
2023-01-25T04:01:31.973Z,25.38
2023-01-25T04:03:36.392Z,25.39
2023-01-25T04:05:40.764Z,25.39
2023-01-25T04:07:45.270Z,25.37
2023-01-25T04:09:49.688Z,25.37
2023-01-25T04:11:54.153Z,25.37
2023-01-25T04:13:58.662Z,25.37
2023-01-25T04:16:03.061Z,25.36
2023-01-25T04:18:07.527Z,25.35
2023-01-25T04:20:11.971Z,25.35
2023-01-25T04:22:16.347Z,25.33
2023-01-25T04:24:20.805Z,25.34
2023-01-25T04:26:25.432Z,25.32
2023-01-25T04:28:29.867Z,25.32
2023-01-25T04:30:34.249Z,25.31
2023-01-25T04:32:38.852Z,25.31
2023-01-25T04:34:43.894Z,25.29
2023-01-25T04:36:48.248Z,25.29
2023-01-25T04:38:52.656Z,25.29
2023-01-25T04:40:57.121Z,25.28
2023-01-25T04:43:01.503Z,25.27
2023-01-25T04:45:05.944Z,25.28
2023-01-25T04:47:11.496Z,25.26
2023-01-25T04:49:15.874Z,25.27
2023-01-25T04:51:20.282Z,25.25
2023-01-25T04:53:24.767Z,25.26
2023-01-25T04:55:30.600Z,25.24
2023-01-25T04:57:37.136Z,25.26
2023-01-25T04:59:41.668Z,25.22
2023-01-25T05:01:46.074Z,25.23
2023-01-25T05:03:50.528Z,25.22
2023-01-25T05:05:54.951Z,25.23
2023-01-25T05:07:59.429Z,25.21
2023-01-25T05:10:03.803Z,25.22
2023-01-25T05:12:08.262Z,25.21
2023-01-25T05:14:12.646Z,25.21
2023-01-25T05:16:17.094Z,25.19
2023-01-25T05:18:21.732Z,25.2
2023-01-25T05:20:26.132Z,25.21
2023-01-25T05:22:30.611Z,25.2
2023-01-25T05:24:35.073Z,25.18
2023-01-25T05:26:39.445Z,25.19
2023-01-25T05:28:43.842Z,25.18
2023-01-25T05:30:48.248Z,25.18
2023-01-25T05:32:52.808Z,25.19
2023-01-25T05:34:58.779Z,25.19
2023-01-25T05:37:04.609Z,25.19
2023-01-25T05:39:09.012Z,25.17
2023-01-25T05:41:13.595Z,25.17
2023-01-25T05:43:18.125Z,25.18
2023-01-25T05:45:22.541Z,25.16
2023-01-25T05:47:26.906Z,25.17
2023-01-25T05:49:31.345Z,25.17
2023-01-25T05:51:35.719Z,25.16
2023-01-25T05:53:40.116Z,25.16
2023-01-25T05:55:44.507Z,25.15
2023-01-25T05:57:48.886Z,25.15
2023-01-25T05:59:53.317Z,25.15
2023-01-25T06:01:57.705Z,25.15
2023-01-25T06:04:02.095Z,25.14
2023-01-25T06:06:06.538Z,25.13
2023-01-25T06:08:11.112Z,25.14
2023-01-25T06:10:15.514Z,25.11
2023-01-25T06:12:19.918Z,25.07
2023-01-25T06:14:24.332Z,25.02
2023-01-25T06:16:28.745Z,24.98
2023-01-25T06:18:33.206Z,24.97
2023-01-25T06:20:37.679Z,24.97
2023-01-25T06:22:42.146Z,24.95
2023-01-25T06:24:46.605Z,24.96
2023-01-25T06:26:51.018Z,24.93
2023-01-25T06:28:55.462Z,24.93
2023-01-25T06:30:59.886Z,24.92
2023-01-25T06:33:04.450Z,24.91
2023-01-25T06:35:09.166Z,24.9
2023-01-25T06:37:14.408Z,24.91
2023-01-25T06:39:18.817Z,24.88
2023-01-25T06:41:23.202Z,24.84
2023-01-25T06:43:27.813Z,24.79
2023-01-25T06:45:32.225Z,24.7
2023-01-25T06:47:36.704Z,24.68
2023-01-25T06:49:41.111Z,24.7
2023-01-25T06:51:45.483Z,24.72
2023-01-25T06:53:49.931Z,24.73
2023-01-25T06:55:54.300Z,24.75
2023-01-25T06:57:58.664Z,24.67
2023-01-25T07:00:03.073Z,24.68
2023-01-25T07:02:07.561Z,24.63
2023-01-25T07:04:12.205Z,24.61
2023-01-25T07:06:16.762Z,24.61
2023-01-25T07:08:21.167Z,24.57
2023-01-25T07:10:25.556Z,24.59
2023-01-25T07:12:29.942Z,24.62
2023-01-25T07:14:34.324Z,24.59
2023-01-25T07:16:38.807Z,24.59
2023-01-25T07:18:43.242Z,24.59
2023-01-25T07:20:47.628Z,24.56
2023-01-25T07:22:52.067Z,24.6
2023-01-25T07:24:56.436Z,24.61
2023-01-25T07:27:00.849Z,24.59
2023-01-25T07:29:05.240Z,24.58
2023-01-25T07:31:09.772Z,24.6
2023-01-25T07:33:14.356Z,24.59
2023-01-25T07:35:18.724Z,24.6
2023-01-25T07:37:23.122Z,24.61
2023-01-25T07:39:27.524Z,24.56
2023-01-25T07:41:31.997Z,24.55
2023-01-25T07:43:36.427Z,24.55
2023-01-25T07:45:40.794Z,24.58
2023-01-25T07:47:45.345Z,24.59
2023-01-25T07:49:49.804Z,24.61
2023-01-25T07:51:54.224Z,24.6
2023-01-25T07:53:58.684Z,24.6
2023-01-25T07:56:03.162Z,24.54
2023-01-25T07:58:07.504Z,24.57
2023-01-25T08:00:11.903Z,24.59
2023-01-25T08:02:16.383Z,24.56
2023-01-25T08:04:20.814Z,24.57
2023-01-25T08:06:25.179Z,24.54
2023-01-25T08:08:29.581Z,24.54
2023-01-25T08:10:34.171Z,24.54
2023-01-25T08:12:38.622Z,24.54
2023-01-25T08:14:43.030Z,24.54
2023-01-25T08:16:47.484Z,24.52
2023-01-25T08:18:52.331Z,24.54
2023-01-25T08:20:56.757Z,24.53
2023-01-25T08:23:01.162Z,24.53
2023-01-25T08:25:05.599Z,24.51
2023-01-25T08:27:10.911Z,24.49
2023-01-25T08:29:15.318Z,24.52
2023-01-25T08:31:19.866Z,24.52
2023-01-25T08:33:24.375Z,24.48
2023-01-25T08:35:28.942Z,24.5
2023-01-25T08:37:33.354Z,24.51
2023-01-25T08:39:37.744Z,24.48
2023-01-25T08:41:42.188Z,24.47
2023-01-25T08:43:47.017Z,24.46
2023-01-25T08:45:51.476Z,24.42
2023-01-25T08:47:55.936Z,24.41
2023-01-25T08:50:00.391Z,24.4
2023-01-25T08:52:04.979Z,24.4
2023-01-25T08:54:09.735Z,24.41
2023-01-25T08:56:14.175Z,24.44
2023-01-25T08:58:18.609Z,24.45
2023-01-25T09:00:23.206Z,24.46
2023-01-25T09:02:27.647Z,24.45
2023-01-25T09:04:32.093Z,24.45
2023-01-25T09:06:36.560Z,24.41
2023-01-25T09:08:41.154Z,24.41
2023-01-25T09:10:45.602Z,24.4
2023-01-25T09:12:50.016Z,24.38
2023-01-25T09:14:54.446Z,24.39
2023-01-25T09:16:58.893Z,24.4
2023-01-25T09:19:03.404Z,24.38
2023-01-25T09:21:07.888Z,24.39
2023-01-25T09:23:12.423Z,24.43
2023-01-25T09:25:16.887Z,24.43
2023-01-25T09:27:21.319Z,24.39
2023-01-25T09:29:25.777Z,24.38
2023-01-25T09:31:30.664Z,24.36
2023-01-25T09:33:35.563Z,24.35
2023-01-25T09:35:40.001Z,24.38
2023-01-25T09:37:44.381Z,24.39
2023-01-25T09:39:48.823Z,24.4
2023-01-25T09:41:53.513Z,24.39
2023-01-25T09:44:14.520Z,24.43
2023-01-25T09:46:19.651Z,24.43
2023-01-25T09:48:24.522Z,24.42
2023-01-25T09:50:29.089Z,24.42
2023-01-25T09:52:33.565Z,24.43
2023-01-25T09:54:46.416Z,24.42
2023-01-25T09:56:51.379Z,24.39
2023-01-25T09:58:55.785Z,24.41
2023-01-25T10:01:00.190Z,24.41
2023-01-25T10:03:06.998Z,24.39
2023-01-25T10:05:11.584Z,24.39
2023-01-25T10:07:16.000Z,24.4
2023-01-25T10:09:21.145Z,24.35
2023-01-25T10:11:25.525Z,24.38
2023-01-25T10:13:29.936Z,24.39
2023-01-25T10:15:34.541Z,24.42
2023-01-25T10:17:38.967Z,24.39
2023-01-25T10:19:46.203Z,24.37
2023-01-25T10:21:50.612Z,24.37
2023-01-25T10:23:55.116Z,24.39
2023-01-25T10:26:00.024Z,24.38
2023-01-25T10:28:04.547Z,24.33
2023-01-25T10:30:09.369Z,24.32
2023-01-25T10:32:14.684Z,24.35
2023-01-25T10:34:19.171Z,24.37
2023-01-25T10:36:23.580Z,24.41
2023-01-25T10:38:27.988Z,24.34
2023-01-25T10:40:32.406Z,24.31
2023-01-25T10:42:36.813Z,24.33
2023-01-25T10:44:41.208Z,24.39
2023-01-25T10:46:45.739Z,24.39
2023-01-25T10:48:50.291Z,24.39
2023-01-25T10:50:54.916Z,24.37
2023-01-25T10:52:59.331Z,24.37
2023-01-25T10:55:03.732Z,24.38
2023-01-25T10:57:08.163Z,24.34
2023-01-25T10:59:12.544Z,24.3
2023-01-25T11:01:16.991Z,24.33
2023-01-25T11:03:21.492Z,24.34
2023-01-25T11:05:25.910Z,24.31
2023-01-25T11:07:30.322Z,24.33
2023-01-25T11:09:34.727Z,24.31
2023-01-25T11:11:40.724Z,24.31
2023-01-25T11:13:45.853Z,24.32
2023-01-25T11:15:50.305Z,24.32
2023-01-25T11:17:54.947Z,24.33
2023-01-25T11:19:59.302Z,24.36
2023-01-25T11:22:03.706Z,24.39
2023-01-25T11:24:08.137Z,24.35
2023-01-25T11:26:13.057Z,24.3
2023-01-25T11:28:17.613Z,24.26
2023-01-25T11:30:22.079Z,24.28
2023-01-25T11:32:26.475Z,24.28
2023-01-25T11:34:30.907Z,24.28
2023-01-25T11:36:35.564Z,24.29
2023-01-25T11:38:41.223Z,24.31
2023-01-25T11:40:46.637Z,24.32
2023-01-25T11:42:51.023Z,24.35
2023-01-25T11:44:55.426Z,24.37
2023-01-25T11:46:59.848Z,24.31
2023-01-25T11:49:04.486Z,24.29
2023-01-25T11:51:08.909Z,24.26
2023-01-25T11:53:13.352Z,24.26
2023-01-25T11:55:17.809Z,24.32
2023-01-25T11:57:22.215Z,24.26
2023-01-25T11:59:26.637Z,24.31
2023-01-25T12:01:31.053Z,24.33
2023-01-25T12:03:35.759Z,24.32
2023-01-25T12:05:40.372Z,24.27
2023-01-25T12:07:44.821Z,24.31
2023-01-25T12:09:49.413Z,24.34
2023-01-25T12:11:53.848Z,24.26
2023-01-25T12:13:58.267Z,24.24
2023-01-25T12:16:02.900Z,24.23
2023-01-25T12:18:07.567Z,24.21
2023-01-25T12:20:12.291Z,24.2
2023-01-25T12:22:16.982Z,24.19
2023-01-25T12:24:21.484Z,24.17
2023-01-25T12:26:26.013Z,24.15
2023-01-25T12:28:30.461Z,24.21
2023-01-25T12:30:34.931Z,24.15
2023-01-25T12:32:39.555Z,24.2
2023-01-25T12:34:43.994Z,24.18
2023-01-25T12:36:48.411Z,24.23
2023-01-25T12:38:52.820Z,24.27
2023-01-25T12:40:57.241Z,24.3
2023-01-25T12:43:01.751Z,24.3
2023-01-25T12:45:06.375Z,24.27
2023-01-25T12:47:14.041Z,24.23
2023-01-25T12:49:19.616Z,24.26
2023-01-25T12:51:24.021Z,24.3
2023-01-25T12:53:28.443Z,24.25
2023-01-25T12:55:32.845Z,24.31
2023-01-25T12:57:37.230Z,24.31
2023-01-25T12:59:41.724Z,24.25
2023-01-25T13:01:46.153Z,24.23
2023-01-25T13:03:50.884Z,24.26
2023-01-25T13:05:55.301Z,24.26
2023-01-25T13:07:59.707Z,24.25
2023-01-25T13:10:04.167Z,24.25
2023-01-25T13:12:08.638Z,24.21
2023-01-25T13:14:13.062Z,24.25
2023-01-25T13:16:17.593Z,24.24
2023-01-25T13:18:22.222Z,24.21
2023-01-25T13:20:26.725Z,24.23
2023-01-25T13:22:31.091Z,24.29
2023-01-25T13:24:35.502Z,24.29
2023-01-25T13:26:39.978Z,24.26
2023-01-25T13:28:44.403Z,24.29
2023-01-25T13:30:48.823Z,24.34
2023-01-25T13:32:53.391Z,24.35
2023-01-25T13:34:57.838Z,24.35
2023-01-25T13:37:02.302Z,24.35
2023-01-25T13:39:06.695Z,24.34
2023-01-25T13:41:11.166Z,24.32
2023-01-25T13:43:15.815Z,24.32
2023-01-25T13:45:20.524Z,24.31
2023-01-25T13:47:25.233Z,24.33
2023-01-25T13:49:29.626Z,24.35
2023-01-25T13:51:34.022Z,24.36
2023-01-25T13:53:38.420Z,24.35
2023-01-25T13:55:42.965Z,24.38
2023-01-25T13:57:47.459Z,24.42
2023-01-25T13:59:54.247Z,24.41
2023-01-25T14:02:14.739Z,24.49
2023-01-25T14:04:19.499Z,24.52
2023-01-25T14:06:23.948Z,24.56
2023-01-25T14:08:28.492Z,24.59
2023-01-25T14:10:32.910Z,24.57
2023-01-25T14:12:37.358Z,24.64
2023-01-25T14:14:41.751Z,24.61
2023-01-25T14:16:46.249Z,24.5
2023-01-25T14:18:50.777Z,24.45
2023-01-25T14:20:55.234Z,24.4
2023-01-25T14:22:59.611Z,24.38
2023-01-25T14:25:04.147Z,24.39
2023-01-25T14:27:08.504Z,24.37
2023-01-25T14:29:14.337Z,24.37
2023-01-25T14:31:36.511Z,24.37
2023-01-25T14:33:41.112Z,24.42
2023-01-25T14:36:08.811Z,24.42
2023-01-25T14:38:28.347Z,24.42
2023-01-25T14:40:32.884Z,24.38
2023-01-25T14:42:37.294Z,24.4
2023-01-25T14:44:41.744Z,24.38
2023-01-25T14:46:46.171Z,24.35
2023-01-25T14:48:50.611Z,24.37
2023-01-25T14:50:54.993Z,24.39
2023-01-25T14:52:59.382Z,24.41
2023-01-25T14:55:03.730Z,24.44
2023-01-25T14:57:08.138Z,24.47
2023-01-25T14:59:12.510Z,24.51
2023-01-25T15:01:16.859Z,24.52
2023-01-25T15:03:21.424Z,24.53
2023-01-25T15:05:25.912Z,24.51
2023-01-25T15:07:30.333Z,24.49
2023-01-25T15:09:34.730Z,24.49
2023-01-25T15:11:39.437Z,24.53
2023-01-25T15:13:43.854Z,24.52
2023-01-25T15:15:48.290Z,24.54
2023-01-25T15:17:52.682Z,24.54
2023-01-25T15:19:57.127Z,24.5
2023-01-25T15:22:01.585Z,24.42
2023-01-25T15:24:06.047Z,24.36
2023-01-25T15:26:10.779Z,24.41
2023-01-25T15:28:15.196Z,24.45
2023-01-25T15:30:19.620Z,24.42
2023-01-25T15:32:24.188Z,24.4
2023-01-25T15:34:28.644Z,24.38
2023-01-25T15:36:33.030Z,24.43
2023-01-25T15:38:37.529Z,24.47
2023-01-25T15:40:41.926Z,24.5
2023-01-25T15:42:46.343Z,24.52
2023-01-25T15:44:50.737Z,24.53
2023-01-25T15:46:55.138Z,24.52
2023-01-25T15:48:59.596Z,24.51
2023-01-25T15:51:03.991Z,24.43
2023-01-25T15:53:08.454Z,24.38
2023-01-25T15:55:12.886Z,24.34
2023-01-25T15:57:17.307Z,24.33
2023-01-25T15:59:21.795Z,24.38
2023-01-25T16:01:26.408Z,24.41
2023-01-25T16:03:31.389Z,24.38
2023-01-25T16:05:35.927Z,24.41
2023-01-25T16:07:40.347Z,24.41
2023-01-25T16:09:44.770Z,24.44
2023-01-25T16:11:49.206Z,24.46
2023-01-25T16:13:53.616Z,24.47
2023-01-25T16:15:58.015Z,24.49
2023-01-25T16:18:02.439Z,24.47
2023-01-25T16:20:06.843Z,24.49
2023-01-25T16:22:12.210Z,24.46
2023-01-25T16:24:16.652Z,24.47
2023-01-25T16:26:21.259Z,24.46
2023-01-25T16:28:25.858Z,24.42
2023-01-25T16:30:30.439Z,24.38
2023-01-25T16:32:34.997Z,24.43
2023-01-25T16:34:39.449Z,24.47
2023-01-25T16:36:43.854Z,24.44
2023-01-25T16:38:48.307Z,24.47
2023-01-25T16:40:52.749Z,24.52
2023-01-25T16:42:57.182Z,24.56
2023-01-25T16:45:01.599Z,24.57
2023-01-25T16:47:06.053Z,24.58
2023-01-25T16:49:10.531Z,24.61
2023-01-25T16:51:15.031Z,24.63
2023-01-25T16:53:19.461Z,24.65
2023-01-25T16:55:23.908Z,24.64
2023-01-25T16:57:28.447Z,24.68
2023-01-25T16:59:32.925Z,24.69
2023-01-25T17:01:37.446Z,24.7
2023-01-25T17:03:42.138Z,24.72
2023-01-25T17:05:46.722Z,24.74
2023-01-25T17:07:51.313Z,24.75
2023-01-25T17:09:56.388Z,24.73
2023-01-25T17:12:00.848Z,24.74
2023-01-25T17:14:05.300Z,24.75
2023-01-25T17:16:09.874Z,24.74
2023-01-25T17:18:14.522Z,24.75
2023-01-25T17:20:18.959Z,24.76
2023-01-25T17:22:23.471Z,24.78
2023-01-25T17:24:27.998Z,24.79
2023-01-25T17:26:32.491Z,24.79
2023-01-25T17:28:36.928Z,24.82
2023-01-25T17:30:41.443Z,24.82
2023-01-25T17:32:46.344Z,24.83
2023-01-25T17:34:50.856Z,24.81
2023-01-25T17:36:55.327Z,24.86
2023-01-25T17:38:59.965Z,24.88
2023-01-25T17:41:04.532Z,24.89
2023-01-25T17:43:09.006Z,24.91
2023-01-25T17:45:13.544Z,24.92
2023-01-25T17:47:18.009Z,24.92
2023-01-25T17:49:22.572Z,24.95
2023-01-25T17:51:27.029Z,24.96
2023-01-25T17:53:31.470Z,24.96
2023-01-25T17:55:35.962Z,24.98
2023-01-25T17:57:40.469Z,24.98
2023-01-25T17:59:44.973Z,24.98
2023-01-25T18:01:49.506Z,24.99
2023-01-25T18:03:54.121Z,25
2023-01-25T18:05:58.638Z,25.01
2023-01-25T18:08:03.066Z,25.03
2023-01-25T18:10:07.721Z,25.04
2023-01-25T18:12:13.457Z,25.07
2023-01-25T18:14:17.895Z,25.09
2023-01-25T18:16:22.544Z,25.14
2023-01-25T18:18:27.102Z,25.18
2023-01-25T18:20:31.720Z,25.22
2023-01-25T18:22:36.210Z,25.25
2023-01-25T18:24:40.758Z,25.3
2023-01-25T18:26:45.176Z,25.32
2023-01-25T18:28:51.889Z,25.35
2023-01-25T18:30:56.607Z,25.38
2023-01-25T18:33:01.384Z,25.4
2023-01-25T18:35:05.827Z,25.39
2023-01-25T18:37:10.381Z,25.45
2023-01-25T18:39:14.779Z,25.48
2023-01-25T18:41:19.205Z,25.49
2023-01-25T18:43:23.617Z,25.47
2023-01-25T18:45:28.047Z,25.33
2023-01-25T18:47:32.541Z,25.11
2023-01-25T18:49:36.960Z,24.96
2023-01-25T18:51:59.054Z,24.8
2023-01-25T18:54:15.345Z,24.75
2023-01-25T18:56:19.788Z,24.69
2023-01-25T18:58:24.194Z,24.64
2023-01-25T19:00:28.628Z,24.55
2023-01-25T19:02:33.131Z,24.46
2023-01-25T19:04:37.892Z,24.38
2023-01-25T19:06:42.323Z,24.32
2023-01-25T19:08:46.794Z,24.24
2023-01-25T19:10:51.189Z,24.19
2023-01-25T19:12:55.602Z,24.09
2023-01-25T19:15:00.079Z,24.06
2023-01-25T19:17:04.561Z,24.03
2023-01-25T19:19:08.967Z,24.01
2023-01-25T19:21:13.351Z,23.98
2023-01-25T19:23:17.857Z,23.95
2023-01-25T19:25:22.337Z,23.85
2023-01-25T19:27:26.821Z,23.78
2023-01-25T19:29:31.201Z,23.71
2023-01-25T19:31:35.730Z,23.61
2023-01-25T19:33:40.335Z,23.57
2023-01-25T19:35:44.710Z,23.56
2023-01-25T19:37:49.110Z,23.6
2023-01-25T19:39:53.536Z,23.64
2023-01-25T19:41:57.953Z,23.67
2023-01-25T19:44:02.341Z,23.68
2023-01-25T19:46:06.827Z,23.67
2023-01-25T19:48:11.297Z,23.69
2023-01-25T19:50:15.699Z,23.69
2023-01-25T19:52:20.068Z,23.7
2023-01-25T19:54:24.577Z,23.7
2023-01-25T19:56:29.036Z,23.71
2023-01-25T19:58:33.568Z,23.72
2023-01-25T20:00:38.019Z,23.7
2023-01-25T20:02:42.464Z,23.65
2023-01-25T20:04:47.035Z,23.65
2023-01-25T20:06:51.479Z,23.62
2023-01-25T20:08:55.918Z,23.61
2023-01-25T20:11:00.312Z,23.6
2023-01-25T20:13:04.815Z,23.58
2023-01-25T20:15:10.027Z,23.56
2023-01-25T20:17:18.348Z,23.54
2023-01-25T20:19:22.787Z,23.47
2023-01-25T20:21:27.324Z,23.39
2023-01-25T20:23:31.771Z,23.31
2023-01-25T20:25:36.257Z,23.26
2023-01-25T20:27:40.635Z,23.24
2023-01-25T20:29:45.145Z,23.27
2023-01-25T20:31:49.651Z,23.33
2023-01-25T20:33:54.322Z,23.41
2023-01-25T20:35:58.773Z,23.52
2023-01-25T20:38:03.167Z,23.62
2023-01-25T20:40:07.716Z,23.73
2023-01-25T20:42:12.185Z,23.81
2023-01-25T20:44:16.596Z,23.86
2023-01-25T20:46:21.060Z,23.96
2023-01-25T20:48:25.699Z,24.03
2023-01-25T20:50:30.156Z,24.07
2023-01-25T20:52:34.741Z,24.09
2023-01-25T20:54:39.221Z,24.19
2023-01-25T20:56:43.684Z,24.21
2023-01-25T20:58:48.093Z,24.27
2023-01-25T21:00:52.600Z,24.34
2023-01-25T21:02:57.246Z,24.38
2023-01-25T21:05:01.653Z,24.43
2023-01-25T21:07:06.040Z,24.48
2023-01-25T21:09:10.447Z,24.51
2023-01-25T21:11:14.974Z,24.55
2023-01-25T21:13:19.496Z,24.54
2023-01-25T21:15:25.604Z,24.55
2023-01-25T21:17:30.076Z,24.59
2023-01-25T21:19:34.631Z,24.6
2023-01-25T21:21:39.088Z,24.63
2023-01-25T21:23:43.545Z,24.64
2023-01-25T21:25:48.033Z,24.65
2023-01-25T21:27:52.463Z,24.67
2023-01-25T21:29:57.001Z,24.65
2023-01-25T21:32:01.434Z,24.58
2023-01-25T21:34:06.120Z,24.53
2023-01-25T21:36:10.617Z,24.55
2023-01-25T21:38:14.999Z,24.53
2023-01-25T21:40:19.472Z,24.53
2023-01-25T21:42:23.921Z,24.55
2023-01-25T21:44:28.383Z,24.62
2023-01-25T21:46:32.774Z,24.67
2023-01-25T21:48:37.188Z,24.63
2023-01-25T21:50:41.647Z,24.68
2023-01-25T21:52:46.086Z,24.7
2023-01-25T21:54:50.461Z,24.74
2023-01-25T21:56:55.008Z,24.75
2023-01-25T21:58:59.461Z,24.76
2023-01-25T22:01:03.968Z,24.7
2023-01-25T22:03:08.566Z,24.73
2023-01-25T22:05:12.991Z,24.74
2023-01-25T22:07:17.676Z,24.81
2023-01-25T22:09:22.089Z,24.82
2023-01-25T22:11:26.556Z,24.82
2023-01-25T22:13:30.967Z,24.83
2023-01-25T22:15:35.383Z,24.89
2023-01-25T22:17:39.985Z,24.91
2023-01-25T22:19:44.427Z,24.92
2023-01-25T22:21:48.836Z,24.96
2023-01-25T22:23:53.420Z,24.95
2023-01-25T22:25:57.950Z,24.97
2023-01-25T22:28:02.325Z,24.96
2023-01-25T22:30:06.769Z,24.97
2023-01-25T22:32:11.971Z,24.97
2023-01-25T22:34:16.364Z,24.93
2023-01-25T22:36:20.783Z,24.95
2023-01-25T22:38:25.269Z,24.96
2023-01-25T22:40:29.784Z,24.93
2023-01-25T22:42:34.172Z,24.91
2023-01-25T22:44:38.559Z,24.84
2023-01-25T22:46:43.013Z,24.9
2023-01-25T22:48:47.471Z,24.96
2023-01-25T22:50:51.915Z,24.99
2023-01-25T22:52:56.341Z,25
2023-01-25T22:55:00.714Z,25.03
2023-01-25T22:57:05.103Z,25.04
2023-01-25T22:59:09.550Z,25.05
2023-01-25T23:01:13.964Z,25.04
2023-01-25T23:03:18.444Z,25.05
2023-01-25T23:05:23.028Z,25.04
2023-01-25T23:07:27.423Z,24.99
2023-01-25T23:09:31.830Z,25.01
2023-01-25T23:11:36.201Z,25.03
2023-01-25T23:13:41.354Z,25.02
2023-01-25T23:15:45.815Z,25.01
2023-01-25T23:17:50.399Z,25.02
2023-01-25T23:19:54.832Z,25.01
2023-01-25T23:21:59.250Z,24.99
2023-01-25T23:24:03.652Z,24.95
2023-01-25T23:26:08.205Z,24.91
2023-01-25T23:28:15.020Z,24.93
2023-01-25T23:30:19.404Z,24.9
2023-01-25T23:32:24.035Z,24.92
2023-01-25T23:34:28.465Z,24.89
2023-01-25T23:36:32.891Z,24.92
2023-01-25T23:38:37.323Z,24.95
2023-01-25T23:40:41.695Z,24.95
2023-01-25T23:42:46.101Z,24.96
2023-01-25T23:44:50.514Z,24.95
2023-01-25T23:46:54.910Z,24.95
2023-01-25T23:48:59.320Z,24.95
2023-01-25T23:51:03.694Z,24.95
2023-01-25T23:53:08.107Z,24.96
2023-01-25T23:55:12.573Z,24.96
2023-01-25T23:57:17.061Z,24.99
2023-01-25T23:59:21.443Z,24.96
